sensor_id;sensor_type;location;lat;lon;timestamp;P1;durP1;ratioP1;P2;durP2;ratioP2
44824;SDS011;30542;47.928;2.138;2023-05-07T00:00:06;2.83;;;0.30;;
44824;SDS011;30542;47.928;2.138;2023-05-07T00:05:08;2.03;;;0.20;;
44824;SDS011;30542;47.928;2.138;2023-05-07T00:10:09;0.38;;;0.20;;
44824;SDS011;30542;47.928;2.138;2023-05-07T00:15:10;1.00;;;0.20;;
44824;SDS011;30542;47.928;2.138;2023-05-07T00:20:11;1.00;;;0.20;;
44824;SDS011;30542;47.928;2.138;2023-05-07T00:25:11;0.82;;;0.40;;
44824;SDS011;30542;47.928;2.138;2023-05-07T00:30:12;0.83;;;0.20;;
44824;SDS011;30542;47.928;2.138;2023-05-07T00:35:13;0.40;;;0.20;;
44824;SDS011;30542;47.928;2.138;2023-05-07T00:40:13;0.40;;;0.20;;
44824;SDS011;30542;47.928;2.138;2023-05-07T00:45:14;0.52;;;0.30;;
44824;SDS011;30542;47.928;2.138;2023-05-07T00:50:15;0.73;;;0.20;;
44824;SDS011;30542;47.928;2.138;2023-05-07T00:55:17;1.25;;;0.20;;
44824;SDS011;30542;47.928;2.138;2023-05-07T01:00:18;0.32;;;0.30;;
44824;SDS011;30542;47.928;2.138;2023-05-07T01:05:19;0.93;;;0.30;;
44824;SDS011;30542;47.928;2.138;2023-05-07T01:10:22;0.10;;;0.10;;
44824;SDS011;30542;47.928;2.138;2023-05-07T01:15:24;0.30;;;0.20;;
44824;SDS011;30542;47.928;2.138;2023-05-07T01:20:24;0.50;;;0.17;;
44824;SDS011;30542;47.928;2.138;2023-05-07T01:25:25;0.57;;;0.20;;
44824;SDS011;30542;47.928;2.138;2023-05-07T01:30:25;0.75;;;0.10;;
44824;SDS011;30542;47.928;2.138;2023-05-07T01:35:28;0.60;;;0.20;;
44824;SDS011;30542;47.928;2.138;2023-05-07T01:40:32;0.70;;;0.20;;
44824;SDS011;30542;47.928;2.138;2023-05-07T01:45:34;1.38;;;0.20;;
44824;SDS011;30542;47.928;2.138;2023-05-07T01:50:35;0.20;;;0.20;;
44824;SDS011;30542;47.928;2.138;2023-05-07T01:55:36;0.40;;;0.10;;
44824;SDS011;30542;47.928;2.138;2023-05-07T02:00:37;0.70;;;0.17;;
44824;SDS011;30542;47.928;2.138;2023-05-07T02:05:37;0.43;;;0.20;;
44824;SDS011;30542;47.928;2.138;2023-05-07T02:10:38;1.13;;;0.10;;
44824;SDS011;30542;47.928;2.138;2023-05-07T02:15:38;0.37;;;0.13;;
44824;SDS011;30542;47.928;2.138;2023-05-07T02:20:38;0.10;;;0.10;;
44824;SDS011;30542;47.928;2.138;2023-05-07T02:25:39;0.90;;;0.10;;
44824;SDS011;30542;47.928;2.138;2023-05-07T02:30:39;0.60;;;0.10;;
44824;SDS011;30542;47.928;2.138;2023-05-07T02:35:40;0.32;;;0.10;;
44824;SDS011;30542;47.928;2.138;2023-05-07T02:40:41;0.28;;;0.20;;
44824;SDS011;30542;47.928;2.138;2023-05-07T02:45:41;0.55;;;0.20;;
44824;SDS011;30542;47.928;2.138;2023-05-07T02:50:43;0.32;;;0.20;;
44824;SDS011;30542;47.928;2.138;2023-05-07T02:55:43;0.32;;;0.20;;
44824;SDS011;30542;47.928;2.138;2023-05-07T03:00:43;0.30;;;0.20;;
44824;SDS011;30542;47.928;2.138;2023-05-07T03:05:44;0.30;;;0.10;;
44824;SDS011;30542;47.928;2.138;2023-05-07T03:10:44;0.27;;;0.10;;
44824;SDS011;30542;47.928;2.138;2023-05-07T03:15:44;0.20;;;0.10;;
44824;SDS011;30542;47.928;2.138;2023-05-07T03:20:45;0.38;;;0.10;;
44824;SDS011;30542;47.928;2.138;2023-05-07T03:25:46;0.10;;;0.10;;
44824;SDS011;30542;47.928;2.138;2023-05-07T03:30:46;0.85;;;0.20;;
44824;SDS011;30542;47.928;2.138;2023-05-07T03:35:46;0.47;;;0.20;;
44824;SDS011;30542;47.928;2.138;2023-05-07T03:40:47;0.20;;;0.20;;
44824;SDS011;30542;47.928;2.138;2023-05-07T03:45:47;0.10;;;0.10;;
44824;SDS011;30542;47.928;2.138;2023-05-07T03:50:48;0.20;;;0.10;;
44824;SDS011;30542;47.928;2.138;2023-05-07T03:55:48;0.77;;;0.10;;
44824;SDS011;30542;47.928;2.138;2023-05-07T04:00:48;0.30;;;0.10;;
44824;SDS011;30542;47.928;2.138;2023-05-07T04:05:49;0.30;;;0.10;;
44824;SDS011;30542;47.928;2.138;2023-05-07T04:10:54;0.10;;;0.10;;
44824;SDS011;30542;47.928;2.138;2023-05-07T04:15:55;0.20;;;0.10;;
44824;SDS011;30542;47.928;2.138;2023-05-07T04:20:56;0.30;;;0.10;;
44824;SDS011;30542;47.928;2.138;2023-05-07T04:25:56;0.30;;;0.20;;
44824;SDS011;30542;47.928;2.138;2023-05-07T04:30:57;0.50;;;0.10;;
44824;SDS011;30542;47.928;2.138;2023-05-07T04:35:58;0.10;;;0.10;;
44824;SDS011;30542;47.928;2.138;2023-05-07T04:41:03;0.85;;;0.10;;
44824;SDS011;30542;47.928;2.138;2023-05-07T04:46:04;0.20;;;0.10;;
44824;SDS011;30542;47.928;2.138;2023-05-07T04:51:04;0.15;;;0.10;;
44824;SDS011;30542;47.928;2.138;2023-05-07T04:56:05;0.30;;;0.10;;
44824;SDS011;30542;47.928;2.138;2023-05-07T05:01:05;0.10;;;0.10;;
44824;SDS011;30542;47.928;2.138;2023-05-07T05:06:06;0.10;;;0.10;;
44824;SDS011;30542;47.928;2.138;2023-05-07T05:11:06;0.30;;;0.10;;
44824;SDS011;30542;47.928;2.138;2023-05-07T05:16:06;0.10;;;0.10;;
44824;SDS011;30542;47.928;2.138;2023-05-07T05:21:07;0.30;;;0.10;;
44824;SDS011;30542;47.928;2.138;2023-05-07T05:26:07;0.20;;;0.10;;
44824;SDS011;30542;47.928;2.138;2023-05-07T05:31:07;0.10;;;0.10;;
44824;SDS011;30542;47.928;2.138;2023-05-07T05:36:11;0.20;;;0.10;;
44824;SDS011;30542;47.928;2.138;2023-05-07T05:41:13;0.25;;;0.20;;
44824;SDS011;30542;47.928;2.138;2023-05-07T05:46:13;0.10;;;0.00;;
44824;SDS011;30542;47.928;2.138;2023-05-07T05:51:13;0.10;;;0.10;;
44824;SDS011;30542;47.928;2.138;2023-05-07T05:56:13;0.10;;;0.10;;
44824;SDS011;30542;47.928;2.138;2023-05-07T06:01:14;0.40;;;0.10;;
44824;SDS011;30542;47.928;2.138;2023-05-07T06:06:15;0.40;;;0.10;;
44824;SDS011;30542;47.928;2.138;2023-05-07T06:11:15;0.13;;;0.10;;
44824;SDS011;30542;47.928;2.138;2023-05-07T06:16:16;0.20;;;0.20;;
44824;SDS011;30542;47.928;2.138;2023-05-07T06:21:16;0.73;;;0.13;;
44824;SDS011;30542;47.928;2.138;2023-05-07T06:26:16;0.27;;;0.10;;
44824;SDS011;30542;47.928;2.138;2023-05-07T06:31:18;0.45;;;0.30;;
44824;SDS011;30542;47.928;2.138;2023-05-07T06:36:22;0.32;;;0.10;;
44824;SDS011;30542;47.928;2.138;2023-05-07T06:41:22;1.17;;;0.10;;
44824;SDS011;30542;47.928;2.138;2023-05-07T06:46:25;0.40;;;0.10;;
44824;SDS011;30542;47.928;2.138;2023-05-07T06:51:25;0.40;;;0.10;;
44824;SDS011;30542;47.928;2.138;2023-05-07T06:56:26;1.63;;;0.15;;
44824;SDS011;30542;47.928;2.138;2023-05-07T07:01:27;0.43;;;0.30;;
44824;SDS011;30542;47.928;2.138;2023-05-07T07:06:27;1.92;;;0.10;;
44824;SDS011;30542;47.928;2.138;2023-05-07T07:11:28;0.40;;;0.10;;
44824;SDS011;30542;47.928;2.138;2023-05-07T07:16:28;1.33;;;0.10;;
44824;SDS011;30542;47.928;2.138;2023-05-07T07:21:28;0.67;;;0.20;;
44824;SDS011;30542;47.928;2.138;2023-05-07T07:26:29;0.40;;;0.17;;
44824;SDS011;30542;47.928;2.138;2023-05-07T07:31:30;1.83;;;0.20;;
44824;SDS011;30542;47.928;2.138;2023-05-07T07:36:30;0.95;;;0.20;;
44824;SDS011;30542;47.928;2.138;2023-05-07T07:41:31;1.17;;;0.40;;
44824;SDS011;30542;47.928;2.138;2023-05-07T07:46:31;1.65;;;0.25;;
44824;SDS011;30542;47.928;2.138;2023-05-07T07:51:31;1.42;;;0.88;;
44824;SDS011;30542;47.928;2.138;2023-05-07T07:56:32;1.73;;;0.97;;
44824;SDS011;30542;47.928;2.138;2023-05-07T08:01:33;1.98;;;1.00;;
44824;SDS011;30542;47.928;2.138;2023-05-07T08:06:33;2.83;;;1.10;;
44824;SDS011;30542;47.928;2.138;2023-05-07T08:11:34;1.70;;;1.05;;
44824;SDS011;30542;47.928;2.138;2023-05-07T08:16:35;2.45;;;1.10;;
44824;SDS011;30542;47.928;2.138;2023-05-07T08:21:38;1.87;;;1.00;;
44824;SDS011;30542;47.928;2.138;2023-05-07T08:26:39;1.23;;;0.70;;
44824;SDS011;30542;47.928;2.138;2023-05-07T08:31:39;0.82;;;0.65;;
44824;SDS011;30542;47.928;2.138;2023-05-07T08:36:40;2.20;;;0.60;;
44824;SDS011;30542;47.928;2.138;2023-05-07T08:41:44;0.90;;;0.80;;
44824;SDS011;30542;47.928;2.138;2023-05-07T08:46:45;1.90;;;0.60;;
44824;SDS011;30542;47.928;2.138;2023-05-07T08:51:49;2.20;;;0.40;;
44824;SDS011;30542;47.928;2.138;2023-05-07T08:56:50;0.83;;;0.40;;
44824;SDS011;30542;47.928;2.138;2023-05-07T09:01:50;4.82;;;1.27;;
44824;SDS011;30542;47.928;2.138;2023-05-07T09:06:51;2.00;;;1.00;;
44824;SDS011;30542;47.928;2.138;2023-05-07T09:11:56;4.40;;;1.50;;
44824;SDS011;30542;47.928;2.138;2023-05-07T09:16:58;4.18;;;1.48;;
44824;SDS011;30542;47.928;2.138;2023-05-07T09:21:59;2.27;;;1.57;;
44824;SDS011;30542;47.928;2.138;2023-05-07T09:27:03;6.03;;;1.48;;
44824;SDS011;30542;47.928;2.138;2023-05-07T09:32:05;5.68;;;1.42;;
44824;SDS011;30542;47.928;2.138;2023-05-07T09:37:06;4.35;;;1.33;;
44824;SDS011;30542;47.928;2.138;2023-05-07T09:42:07;3.30;;;1.20;;
44824;SDS011;30542;47.928;2.138;2023-05-07T09:47:07;2.87;;;1.60;;
44824;SDS011;30542;47.928;2.138;2023-05-07T09:52:08;4.70;;;1.50;;
44824;SDS011;30542;47.928;2.138;2023-05-07T09:57:10;3.38;;;1.50;;
44824;SDS011;30542;47.928;2.138;2023-05-07T10:02:14;4.95;;;1.67;;
44824;SDS011;30542;47.928;2.138;2023-05-07T10:07:15;4.20;;;1.85;;
44824;SDS011;30542;47.928;2.138;2023-05-07T10:12:17;5.05;;;2.13;;
44824;SDS011;30542;47.928;2.138;2023-05-07T10:17:18;3.63;;;1.48;;
44824;SDS011;30542;47.928;2.138;2023-05-07T10:22:20;5.15;;;1.70;;
44824;SDS011;30542;47.928;2.138;2023-05-07T10:27:21;4.97;;;1.33;;
44824;SDS011;30542;47.928;2.138;2023-05-07T10:32:29;3.55;;;1.27;;
44824;SDS011;30542;47.928;2.138;2023-05-07T10:37:37;2.70;;;1.85;;
44824;SDS011;30542;47.928;2.138;2023-05-07T10:42:37;2.08;;;1.58;;
44824;SDS011;30542;47.928;2.138;2023-05-07T10:47:59;3.17;;;1.13;;
44824;SDS011;30542;47.928;2.138;2023-05-07T11:03:21;2.28;;;1.10;;
44824;SDS011;30542;47.928;2.138;2023-05-07T11:08:22;2.72;;;1.20;;
44824;SDS011;30542;47.928;2.138;2023-05-07T11:13:41;2.90;;;1.90;;
44824;SDS011;30542;47.928;2.138;2023-05-07T11:18:46;2.55;;;1.30;;
44824;SDS011;30542;47.928;2.138;2023-05-07T11:28:51;3.80;;;1.20;;
44824;SDS011;30542;47.928;2.138;2023-05-07T11:33:52;3.92;;;1.15;;
44824;SDS011;30542;47.928;2.138;2023-05-07T11:38:53;3.22;;;1.08;;
44824;SDS011;30542;47.928;2.138;2023-05-07T11:43:57;2.53;;;1.47;;
44824;SDS011;30542;47.928;2.138;2023-05-07T11:48:59;2.63;;;1.38;;
44824;SDS011;30542;47.928;2.138;2023-05-07T11:54:00;1.67;;;1.40;;
44824;SDS011;30542;47.928;2.138;2023-05-07T11:59:04;3.03;;;1.20;;
44824;SDS011;30542;47.928;2.138;2023-05-07T12:04:04;1.98;;;1.67;;
44824;SDS011;30542;47.928;2.138;2023-05-07T12:09:05;2.40;;;1.17;;
44824;SDS011;30542;47.928;2.138;2023-05-07T12:14:07;1.77;;;1.33;;
44824;SDS011;30542;47.928;2.138;2023-05-07T12:19:07;2.40;;;1.63;;
44824;SDS011;30542;47.928;2.138;2023-05-07T12:24:13;2.03;;;1.45;;
44824;SDS011;30542;47.928;2.138;2023-05-07T12:29:16;1.40;;;1.30;;
44824;SDS011;30542;47.928;2.138;2023-05-07T12:34:16;3.80;;;1.50;;
44824;SDS011;30542;47.928;2.138;2023-05-07T12:39:17;2.88;;;1.38;;
44824;SDS011;30542;47.928;2.138;2023-05-07T12:44:17;2.60;;;1.63;;
44824;SDS011;30542;47.928;2.138;2023-05-07T12:49:17;2.53;;;1.30;;
44824;SDS011;30542;47.928;2.138;2023-05-07T12:54:27;2.77;;;2.00;;
44824;SDS011;30542;47.928;2.138;2023-05-07T12:59:35;9.80;;;1.88;;
44824;SDS011;30542;47.928;2.138;2023-05-07T13:04:37;6.07;;;2.17;;
44824;SDS011;30542;47.928;2.138;2023-05-07T13:09:37;3.17;;;1.63;;
44824;SDS011;30542;47.928;2.138;2023-05-07T13:14:38;3.10;;;1.80;;
44824;SDS011;30542;47.928;2.138;2023-05-07T13:19:38;6.60;;;1.40;;
44824;SDS011;30542;47.928;2.138;2023-05-07T13:24:39;3.43;;;1.27;;
44824;SDS011;30542;47.928;2.138;2023-05-07T13:29:41;3.30;;;1.60;;
44824;SDS011;30542;47.928;2.138;2023-05-07T13:34:41;3.97;;;1.70;;
44824;SDS011;30542;47.928;2.138;2023-05-07T13:39:42;2.77;;;1.40;;
44824;SDS011;30542;47.928;2.138;2023-05-07T13:44:42;3.83;;;1.60;;
44824;SDS011;30542;47.928;2.138;2023-05-07T13:49:43;2.88;;;1.13;;
44824;SDS011;30542;47.928;2.138;2023-05-07T13:54:44;2.90;;;1.50;;
44824;SDS011;30542;47.928;2.138;2023-05-07T13:59:45;5.43;;;1.70;;
44824;SDS011;30542;47.928;2.138;2023-05-07T14:04:45;3.20;;;1.33;;
44824;SDS011;30542;47.928;2.138;2023-05-07T14:09:45;2.10;;;1.30;;
44824;SDS011;30542;47.928;2.138;2023-05-07T14:14:45;2.83;;;1.33;;
44824;SDS011;30542;47.928;2.138;2023-05-07T14:19:46;3.15;;;1.30;;
44824;SDS011;30542;47.928;2.138;2023-05-07T14:24:48;3.83;;;1.38;;
44824;SDS011;30542;47.928;2.138;2023-05-07T14:29:49;3.20;;;1.30;;
44824;SDS011;30542;47.928;2.138;2023-05-07T14:34:51;2.38;;;0.90;;
44824;SDS011;30542;47.928;2.138;2023-05-07T14:39:51;3.87;;;1.60;;
44824;SDS011;30542;47.928;2.138;2023-05-07T14:44:51;2.80;;;1.60;;
44824;SDS011;30542;47.928;2.138;2023-05-07T14:49:52;3.08;;;1.48;;
44824;SDS011;30542;47.928;2.138;2023-05-07T14:54:54;3.83;;;1.40;;
44824;SDS011;30542;47.928;2.138;2023-05-07T14:59:54;3.95;;;1.48;;
44824;SDS011;30542;47.928;2.138;2023-05-07T15:04:54;3.87;;;1.10;;
44824;SDS011;30542;47.928;2.138;2023-05-07T15:09:55;5.57;;;1.37;;
44824;SDS011;30542;47.928;2.138;2023-05-07T15:14:55;2.28;;;0.90;;
44824;SDS011;30542;47.928;2.138;2023-05-07T15:19:56;2.23;;;0.97;;
44824;SDS011;30542;47.928;2.138;2023-05-07T15:24:56;3.70;;;1.20;;
44824;SDS011;30542;47.928;2.138;2023-05-07T15:29:57;3.03;;;0.90;;
44824;SDS011;30542;47.928;2.138;2023-05-07T15:34:57;1.67;;;1.03;;
44824;SDS011;30542;47.928;2.138;2023-05-07T15:39:58;3.03;;;1.10;;
44824;SDS011;30542;47.928;2.138;2023-05-07T15:44:58;2.97;;;1.20;;
44824;SDS011;30542;47.928;2.138;2023-05-07T15:50:00;3.05;;;0.95;;
44824;SDS011;30542;47.928;2.138;2023-05-07T15:55:01;1.75;;;1.23;;
44824;SDS011;30542;47.928;2.138;2023-05-07T16:00:02;1.52;;;0.82;;
44824;SDS011;30542;47.928;2.138;2023-05-07T16:05:05;2.38;;;0.90;;
44824;SDS011;30542;47.928;2.138;2023-05-07T16:10:10;1.58;;;1.20;;
44824;SDS011;30542;47.928;2.138;2023-05-07T16:15:10;2.40;;;0.90;;
44824;SDS011;30542;47.928;2.138;2023-05-07T16:20:11;4.35;;;1.40;;
44824;SDS011;30542;47.928;2.138;2023-05-07T16:25:12;1.85;;;0.85;;
44824;SDS011;30542;47.928;2.138;2023-05-07T16:30:13;4.38;;;1.17;;
44824;SDS011;30542;47.928;2.138;2023-05-07T16:35:14;1.70;;;0.90;;
44824;SDS011;30542;47.928;2.138;2023-05-07T16:40:14;4.83;;;1.13;;
44824;SDS011;30542;47.928;2.138;2023-05-07T16:45:15;5.60;;;1.00;;
44824;SDS011;30542;47.928;2.138;2023-05-07T16:50:15;2.60;;;1.10;;
44824;SDS011;30542;47.928;2.138;2023-05-07T16:55:15;2.80;;;0.93;;
44824;SDS011;30542;47.928;2.138;2023-05-07T17:00:16;1.13;;;0.90;;
44824;SDS011;30542;47.928;2.138;2023-05-07T17:05:17;2.88;;;1.08;;
44824;SDS011;30542;47.928;2.138;2023-05-07T17:10:18;4.18;;;1.08;;
44824;SDS011;30542;47.928;2.138;2023-05-07T17:15:19;1.73;;;1.02;;
44824;SDS011;30542;47.928;2.138;2023-05-07T17:20:19;5.17;;;1.17;;
44824;SDS011;30542;47.928;2.138;2023-05-07T17:25:20;3.72;;;1.75;;
44824;SDS011;30542;47.928;2.138;2023-05-07T17:30:22;7.82;;;4.55;;
44824;SDS011;30542;47.928;2.138;2023-05-07T17:35:22;13.93;;;12.30;;
44824;SDS011;30542;47.928;2.138;2023-05-07T17:40:22;23.77;;;21.00;;
44824;SDS011;30542;47.928;2.138;2023-05-07T17:45:23;26.60;;;23.10;;
44824;SDS011;30542;47.928;2.138;2023-05-07T17:50:23;29.17;;;24.63;;
44824;SDS011;30542;47.928;2.138;2023-05-07T17:55:24;29.47;;;25.37;;
44824;SDS011;30542;47.928;2.138;2023-05-07T18:00:24;26.40;;;23.53;;
44824;SDS011;30542;47.928;2.138;2023-05-07T18:05:25;27.27;;;24.13;;
44824;SDS011;30542;47.928;2.138;2023-05-07T18:10:25;28.52;;;22.85;;
44824;SDS011;30542;47.928;2.138;2023-05-07T18:15:26;26.15;;;23.02;;
44824;SDS011;30542;47.928;2.138;2023-05-07T18:20:27;27.85;;;22.83;;
44824;SDS011;30542;47.928;2.138;2023-05-07T18:25:27;28.17;;;22.57;;
44824;SDS011;30542;47.928;2.138;2023-05-07T18:30:28;27.07;;;21.83;;
44824;SDS011;30542;47.928;2.138;2023-05-07T18:35:28;25.13;;;21.30;;
44824;SDS011;30542;47.928;2.138;2023-05-07T18:40:30;24.23;;;21.55;;
44824;SDS011;30542;47.928;2.138;2023-05-07T18:45:31;25.88;;;21.40;;
44824;SDS011;30542;47.928;2.138;2023-05-07T18:50:32;24.27;;;21.65;;
44824;SDS011;30542;47.928;2.138;2023-05-07T18:55:33;22.83;;;20.25;;
44824;SDS011;30542;47.928;2.138;2023-05-07T19:00:33;23.97;;;21.03;;
44824;SDS011;30542;47.928;2.138;2023-05-07T19:05:33;24.53;;;19.60;;
44824;SDS011;30542;47.928;2.138;2023-05-07T19:10:34;22.83;;;18.27;;
44824;SDS011;30542;47.928;2.138;2023-05-07T19:15:34;24.77;;;20.07;;
44824;SDS011;30542;47.928;2.138;2023-05-07T19:20:34;20.53;;;18.07;;
44824;SDS011;30542;47.928;2.138;2023-05-07T19:25:35;21.75;;;18.10;;
44824;SDS011;30542;47.928;2.138;2023-05-07T19:30:36;20.63;;;18.43;;
44824;SDS011;30542;47.928;2.138;2023-05-07T19:35:38;22.70;;;18.77;;
44824;SDS011;30542;47.928;2.138;2023-05-07T19:40:38;19.70;;;17.50;;
44824;SDS011;30542;47.928;2.138;2023-05-07T19:45:39;20.50;;;17.53;;
44824;SDS011;30542;47.928;2.138;2023-05-07T19:50:42;20.85;;;16.85;;
44824;SDS011;30542;47.928;2.138;2023-05-07T19:55:42;21.07;;;17.27;;
44824;SDS011;30542;47.928;2.138;2023-05-07T20:00:42;19.23;;;17.13;;
44824;SDS011;30542;47.928;2.138;2023-05-07T20:05:44;18.00;;;16.10;;
44824;SDS011;30542;47.928;2.138;2023-05-07T20:10:46;19.90;;;17.58;;
44824;SDS011;30542;47.928;2.138;2023-05-07T20:15:50;18.23;;;16.33;;
44824;SDS011;30542;47.928;2.138;2023-05-07T20:20:50;17.67;;;15.57;;
44824;SDS011;30542;47.928;2.138;2023-05-07T20:25:50;17.17;;;15.40;;
44824;SDS011;30542;47.928;2.138;2023-05-07T20:30:51;16.73;;;14.77;;
44824;SDS011;30542;47.928;2.138;2023-05-07T20:35:51;17.93;;;15.20;;
44824;SDS011;30542;47.928;2.138;2023-05-07T20:40:52;17.50;;;15.30;;
44824;SDS011;30542;47.928;2.138;2023-05-07T20:45:58;17.13;;;14.63;;
44824;SDS011;30542;47.928;2.138;2023-05-07T20:51:02;16.77;;;14.38;;
44824;SDS011;30542;47.928;2.138;2023-05-07T20:56:03;15.13;;;13.50;;
44824;SDS011;30542;47.928;2.138;2023-05-07T21:01:03;15.30;;;13.52;;
44824;SDS011;30542;47.928;2.138;2023-05-07T21:06:05;15.80;;;14.10;;
44824;SDS011;30542;47.928;2.138;2023-05-07T21:11:05;16.27;;;14.57;;
44824;SDS011;30542;47.928;2.138;2023-05-07T21:16:06;15.02;;;13.43;;
44824;SDS011;30542;47.928;2.138;2023-05-07T21:21:08;16.25;;;12.95;;
44824;SDS011;30542;47.928;2.138;2023-05-07T21:26:09;14.98;;;13.35;;
44824;SDS011;30542;47.928;2.138;2023-05-07T21:31:16;15.80;;;13.20;;
44824;SDS011;30542;47.928;2.138;2023-05-07T21:36:17;14.18;;;11.90;;
44824;SDS011;30542;47.928;2.138;2023-05-07T21:41:17;13.15;;;11.82;;
44824;SDS011;30542;47.928;2.138;2023-05-07T21:46:19;13.40;;;12.10;;
44824;SDS011;30542;47.928;2.138;2023-05-07T21:51:19;13.43;;;11.83;;
44824;SDS011;30542;47.928;2.138;2023-05-07T21:56:20;14.87;;;11.93;;
44824;SDS011;30542;47.928;2.138;2023-05-07T22:01:21;11.70;;;10.50;;
44824;SDS011;30542;47.928;2.138;2023-05-07T22:06:21;11.93;;;10.73;;
44824;SDS011;30542;47.928;2.138;2023-05-07T22:11:21;11.75;;;10.38;;
44824;SDS011;30542;47.928;2.138;2023-05-07T22:16:22;12.90;;;10.27;;
44824;SDS011;30542;47.928;2.138;2023-05-07T22:21:22;11.23;;;10.03;;
44824;SDS011;30542;47.928;2.138;2023-05-07T22:26:22;11.05;;;9.98;;
44824;SDS011;30542;47.928;2.138;2023-05-07T22:31:23;11.73;;;10.23;;
44824;SDS011;30542;47.928;2.138;2023-05-07T22:36:23;10.00;;;9.00;;
44824;SDS011;30542;47.928;2.138;2023-05-07T22:41:23;10.40;;;9.40;;
44824;SDS011;30542;47.928;2.138;2023-05-07T22:46:24;10.60;;;9.50;;
44824;SDS011;30542;47.928;2.138;2023-05-07T22:51:25;10.30;;;8.25;;
44824;SDS011;30542;47.928;2.138;2023-05-07T22:56:26;9.60;;;8.63;;
44824;SDS011;30542;47.928;2.138;2023-05-07T23:01:26;10.30;;;9.30;;
44824;SDS011;30542;47.928;2.138;2023-05-07T23:06:27;10.37;;;8.63;;
44824;SDS011;30542;47.928;2.138;2023-05-07T23:11:27;9.17;;;8.27;;
44824;SDS011;30542;47.928;2.138;2023-05-07T23:16:27;9.10;;;8.20;;
44824;SDS011;30542;47.928;2.138;2023-05-07T23:21:28;10.63;;;8.73;;
44824;SDS011;30542;47.928;2.138;2023-05-07T23:26:28;9.23;;;8.10;;
44824;SDS011;30542;47.928;2.138;2023-05-07T23:31:29;8.77;;;7.88;;
44824;SDS011;30542;47.928;2.138;2023-05-07T23:36:29;8.05;;;7.25;;
44824;SDS011;30542;47.928;2.138;2023-05-07T23:41:31;8.95;;;8.15;;
44824;SDS011;30542;47.928;2.138;2023-05-07T23:46:31;8.50;;;7.67;;
44824;SDS011;30542;47.928;2.138;2023-05-07T23:51:32;8.40;;;7.40;;
44824;SDS011;30542;47.928;2.138;2023-05-07T23:56:32;8.43;;;7.50;;
